Wakanatsu — JD2300 — position and weather

sailwx.info

Track history (hours):
 
Tides and Currents Weather Stations Pressure Air Temp Water Temp Dewpoint Dewpoint Depression Visibility Wind Speed Wind Dir Waves Ship Positions

Wakanatsu

Last reported at 2017-Oct-14 14:16 UTC. Time now 2017-Oct-17 22:31 UTC.
Position N 33°52' E 134°52'.

Length 164 m; draft 6.7 m.

Type: Cargo ship. MMSI: 431680233.

Date/timePositionNaut miles runAvg speedWind from/ knotsBaromVisibWave heightAir tempDewpointWater temp
2017-Oct-14 14:16N 33°52' E 134°52'520.2
2017-Oct-14 13:59N 33°58' E 134°53'1020.2
2017-Oct-14 13:30N 34°07' E 134°55'1120.5
2017-Oct-14 12:59N 34°18' E 134°59'919.4
2017-Oct-14 12:30N 34°25' E 135°05'1019.7
2017-Oct-14 12:00N 34°32' E 135°14'816.8
2017-Oct-14 11:30N 34°37' E 135°22'3 6.4
2017-Oct-14 11:00N 34°37' E 135°26'0 0.0
2017-Oct-14 10:24N 34°37' E 135°26'0 0.0
2017-Oct-14 10:00N 34°37' E 135°26'0 0.0
2017-Oct-14 09:24N 34°37' E 135°26'0 0.0
2017-Oct-14 08:48N 34°37' E 135°26'0 0.0
2017-Oct-14 08:30N 34°37' E 135°26'0 0.0
2017-Oct-14 08:00N 34°37' E 135°26'0 0.0
2017-Oct-14 07:30N 34°37' E 135°26'0 0.0
2017-Oct-14 06:54N 34°37' E 135°26'0 0.0
2017-Oct-14 06:24N 34°37' E 135°26'0 0.0
2017-Oct-14 06:00N 34°37' E 135°26'4 7.9
2017-Oct-14 05:30N 34°36' E 135°21'1019.3
2017-Oct-14 05:00N 34°29' E 135°13'1019.7
2017-Oct-14 04:30N 34°22' E 135°05'1019.2
2017-Oct-14 04:00N 34°14' E 134°59'1019.5
2017-Oct-14 03:30N 34°04' E 134°59'22216.6
2017-Oct-13 14:07N 34°53' E 139°22'218.8
2017-Oct-13 14:00N 34°54' E 139°24'918.6
2017-Oct-13 13:30N 35°00' E 139°33'919.2
2017-Oct-13 13:00N 35°06' E 139°42'816.6
2017-Oct-13 12:30N 35°14' E 139°46'612.9
2017-Oct-13 12:00N 35°19' E 139°43'815.5
2017-Oct-13 11:30N 35°27' E 139°46'814.5
2017-Oct-13 10:59N 35°34' E 139°49'4 1.2
2017-Oct-13 07:36N 35°37' E 139°47'0 0.0
2017-Oct-13 04:18N 35°37' E 139°47'0 0.0
2017-Oct-13 03:42N 35°37' E 139°47'0 0.0
2017-Oct-12 23:00N 35°37' E 139°47'5 9.3
2017-Oct-12 22:30N 35°33' E 139°50'713.1
2017-Oct-12 22:00N 35°27' E 139°49'713.5
2017-Oct-12 21:30N 35°21' E 139°45'611.8
2017-Oct-12 21:00N 35°15' E 139°47'611.6
2017-Oct-12 20:30N 35°10' E 139°47'816.4
2017-Oct-12 20:01N 35°02' E 139°44'1019.1
2017-Oct-12 19:30N 34°55' E 139°35'23717.5
2017-Oct-12 06:01N 33°52' E 134°59'019.8
2017-Oct-12 05:59N 33°53' E 134°59'919.5
2017-Oct-12 05:30N 34°02' E 134°57'1019.4
2017-Oct-12 05:01N 34°12' E 134°58'1017.6
2017-Oct-12 04:28N 34°21' E 135°00'918.7
2017-Oct-12 04:00N 34°28' E 135°07'1019.7
2017-Oct-12 03:30N 34°34' E 135°17'713.8
2017-Oct-12 02:58N 34°37' E 135°24'1 2.1
2017-Oct-12 02:26N 34°37' E 135°26'0 0.0
2017-Oct-12 01:56N 34°37' E 135°26'0 0.0
2017-Oct-12 01:26N 34°37' E 135°26'0 0.1
2017-Oct-12 00:56N 34°37' E 135°26'0 0.1
2017-Oct-12 00:20N 34°37' E 135°26'0 0.0
2017-Oct-11 23:50N 34°37' E 135°26'0 0.0
2017-Oct-11 23:30N 34°37' E 135°26'3 6.8
2017-Oct-11 23:00N 34°37' E 135°21'918.4
2017-Oct-11 22:30N 34°30' E 135°14'918.3
2017-Oct-11 22:00N 34°23' E 135°06'917.6
2017-Oct-11 21:30N 34°17' E 134°59'917.3
2017-Oct-11 21:00N 34°08' E 134°58'  
2017-Oct-07 14:40N 33°55' E 134°51'319.2
2017-Oct-07 14:30N 33°58' E 134°51'1019.6
2017-Oct-07 14:00N 34°07' E 134°56'1019.3
2017-Oct-07 13:30N 34°17' E 134°59'918.0
2017-Oct-07 13:00N 34°25' E 135°04'1019.5
2017-Oct-07 12:30N 34°31' E 135°13'917.3
2017-Oct-07 12:00N 34°37' E 135°21'4 6.9
2017-Oct-07 11:25N 34°37' E 135°26'0 0.0
2017-Oct-07 10:55N 34°37' E 135°26'0 0.0
2017-Oct-07 10:25N 34°37' E 135°26'0 0.1
2017-Oct-07 09:55N 34°37' E 135°26'0 0.1
2017-Oct-07 09:25N 34°37' E 135°26'0 0.1
2017-Oct-07 08:55N 34°37' E 135°26'0 0.1
2017-Oct-07 08:19N 34°37' E 135°26'0 0.0
2017-Oct-07 07:37N 34°37' E 135°26'0 0.0
2017-Oct-07 07:25N 34°37' E 135°26'0 0.1
2017-Oct-07 06:55N 34°37' E 135°26'0 0.1
2017-Oct-07 06:25N 34°37' E 135°26'0 0.0
2017-Oct-07 05:59N 34°37' E 135°26'2 4.7
2017-Oct-07 05:30N 34°38' E 135°23'918.8
2017-Oct-07 05:00N 34°31' E 135°15'918.7
2017-Oct-07 04:30N 34°24' E 135°07'1017.7
2017-Oct-07 03:57N 34°17' E 134°59'818.3
2017-Oct-07 03:30N 34°09' E 134°60'1018.8
2017-Oct-07 02:58N 33°59' E 135°00'21717.3
2017-Oct-06 14:25N 34°46' E 139°17'818.2
2017-Oct-06 13:59N 34°52' E 139°24'919.1
2017-Oct-06 13:30N 34°59' E 139°31'1020.0
2017-Oct-06 13:00N 35°05' E 139°40'917.6
2017-Oct-06 12:30N 35°13' E 139°46'612.8
2017-Oct-06 12:01N 35°19' E 139°44'714.6
2017-Oct-06 11:31N 35°26' E 139°45'917.1
2017-Oct-06 11:00N 35°33' E 139°51'5 9.9
2017-Oct-06 10:31N 35°37' E 139°47'0 0.0
2017-Oct-06 00:49N 35°37' E 139°47'2 5.0
2017-Oct-06 00:30N 35°36' E 139°47'815.4
2017-Oct-06 00:00N 35°29' E 139°52'815.5
2017-Oct-05 23:30N 35°23' E 139°46'611.9
2017-Oct-05 23:00N 35°17' E 139°45'612.2
2017-Oct-05 22:30N 35°11' E 139°47'918.4
2017-Oct-05 22:00N 35°03' E 139°42'918.3
2017-Oct-05 21:30N 34°57' E 139°35'23615.7
2017-Oct-05 06:27N 33°50' E 135°00'919.9
2017-Oct-05 05:59N 33°59' E 134°57'1021.0
2017-Oct-05 05:30N 34°09' E 134°58'1121.9
2017-Oct-05 05:00N 34°20' E 134°59'1020.6
2017-Oct-05 04:30N 34°28' E 135°08'1019.9
2017-Oct-05 04:00N 34°34' E 135°17'713.8
2017-Oct-05 03:30N 34°37' E 135°24'1 1.9
2017-Oct-05 02:59N 34°37' E 135°26'0 0.0
2017-Oct-05 02:29N 34°37' E 135°26'0 0.0
2017-Oct-05 01:59N 34°37' E 135°26'0 0.0
2017-Oct-05 01:29N 34°37' E 135°26'0 0.0
2017-Oct-05 00:53N 34°37' E 135°26'0 0.0
2017-Oct-05 00:30N 34°37' E 135°26'3 6.5
2017-Oct-05 00:00N 34°37' E 135°22'919.0
2017-Oct-04 23:30N 34°31' E 135°13'1019.6
2017-Oct-04 23:00N 34°23' E 135°06'1019.5
2017-Oct-04 22:31N 34°15' E 134°59'1019.2
2017-Oct-04 22:00N 34°06' E 134°57'  
Track history (hours):
 
Tides and Currents Weather Stations Pressure Air Temp Water Temp Dewpoint Dewpoint Depression Visibility Wind Speed Wind Dir Waves Ship Positions

Wakanatsu

Last reported at 2017-Oct-14 14:16 UTC. Time now 2017-Oct-17 22:31 UTC.
Position N 33°52' E 134°52'.

Length 164 m; draft 6.7 m.

Type: Cargo ship. MMSI: 431680233.

Date/timePositionNaut miles runAvg speedWind from/ knotsBaromVisibWave heightAir tempDewpointWater temp
2017-Oct-14 14:16N 33°52' E 134°52'520.2
2017-Oct-14 13:59N 33°58' E 134°53'1020.2
2017-Oct-14 13:30N 34°07' E 134°55'1120.5
2017-Oct-14 12:59N 34°18' E 134°59'919.4
2017-Oct-14 12:30N 34°25' E 135°05'1019.7
2017-Oct-14 12:00N 34°32' E 135°14'816.8
2017-Oct-14 11:30N 34°37' E 135°22'3 6.4
2017-Oct-14 11:00N 34°37' E 135°26'0 0.0
2017-Oct-14 10:24N 34°37' E 135°26'0 0.0
2017-Oct-14 10:00N 34°37' E 135°26'0 0.0
2017-Oct-14 09:24N 34°37' E 135°26'0 0.0
2017-Oct-14 08:48N 34°37' E 135°26'0 0.0
2017-Oct-14 08:30N 34°37' E 135°26'0 0.0
2017-Oct-14 08:00N 34°37' E 135°26'0 0.0
2017-Oct-14 07:30N 34°37' E 135°26'0 0.0
2017-Oct-14 06:54N 34°37' E 135°26'0 0.0
2017-Oct-14 06:24N 34°37' E 135°26'0 0.0
2017-Oct-14 06:00N 34°37' E 135°26'4 7.9
2017-Oct-14 05:30N 34°36' E 135°21'1019.3
2017-Oct-14 05:00N 34°29' E 135°13'1019.7
2017-Oct-14 04:30N 34°22' E 135°05'1019.2
2017-Oct-14 04:00N 34°14' E 134°59'1019.5
2017-Oct-14 03:30N 34°04' E 134°59'22216.6
2017-Oct-13 14:07N 34°53' E 139°22'218.8
2017-Oct-13 14:00N 34°54' E 139°24'918.6
2017-Oct-13 13:30N 35°00' E 139°33'919.2
2017-Oct-13 13:00N 35°06' E 139°42'816.6
2017-Oct-13 12:30N 35°14' E 139°46'612.9
2017-Oct-13 12:00N 35°19' E 139°43'815.5
2017-Oct-13 11:30N 35°27' E 139°46'814.5
2017-Oct-13 10:59N 35°34' E 139°49'4 1.2
2017-Oct-13 07:36N 35°37' E 139°47'0 0.0
2017-Oct-13 04:18N 35°37' E 139°47'0 0.0
2017-Oct-13 03:42N 35°37' E 139°47'0 0.0
2017-Oct-12 23:00N 35°37' E 139°47'5 9.3
2017-Oct-12 22:30N 35°33' E 139°50'713.1
2017-Oct-12 22:00N 35°27' E 139°49'713.5
2017-Oct-12 21:30N 35°21' E 139°45'611.8
2017-Oct-12 21:00N 35°15' E 139°47'611.6
2017-Oct-12 20:30N 35°10' E 139°47'816.4
2017-Oct-12 20:01N 35°02' E 139°44'1019.1
2017-Oct-12 19:30N 34°55' E 139°35'23717.5
2017-Oct-12 06:01N 33°52' E 134°59'019.8
2017-Oct-12 05:59N 33°53' E 134°59'919.5
2017-Oct-12 05:30N 34°02' E 134°57'1019.4
2017-Oct-12 05:01N 34°12' E 134°58'1017.6
2017-Oct-12 04:28N 34°21' E 135°00'918.7
2017-Oct-12 04:00N 34°28' E 135°07'1019.7
2017-Oct-12 03:30N 34°34' E 135°17'713.8
2017-Oct-12 02:58N 34°37' E 135°24'1 2.1
2017-Oct-12 02:26N 34°37' E 135°26'0 0.0
2017-Oct-12 01:56N 34°37' E 135°26'0 0.0
2017-Oct-12 01:26N 34°37' E 135°26'0 0.1
2017-Oct-12 00:56N 34°37' E 135°26'0 0.1
2017-Oct-12 00:20N 34°37' E 135°26'0 0.0
2017-Oct-11 23:50N 34°37' E 135°26'0 0.0
2017-Oct-11 23:30N 34°37' E 135°26'3 6.8
2017-Oct-11 23:00N 34°37' E 135°21'918.4
2017-Oct-11 22:30N 34°30' E 135°14'918.3
2017-Oct-11 22:00N 34°23' E 135°06'917.6
2017-Oct-11 21:30N 34°17' E 134°59'917.3
2017-Oct-11 21:00N 34°08' E 134°58'  
2017-Oct-07 14:40N 33°55' E 134°51'319.2
2017-Oct-07 14:30N 33°58' E 134°51'1019.6
2017-Oct-07 14:00N 34°07' E 134°56'1019.3
2017-Oct-07 13:30N 34°17' E 134°59'918.0
2017-Oct-07 13:00N 34°25' E 135°04'1019.5
2017-Oct-07 12:30N 34°31' E 135°13'917.3
2017-Oct-07 12:00N 34°37' E 135°21'4 6.9
2017-Oct-07 11:25N 34°37' E 135°26'0 0.0
2017-Oct-07 10:55N 34°37' E 135°26'0 0.0
2017-Oct-07 10:25N 34°37' E 135°26'0 0.1
2017-Oct-07 09:55N 34°37' E 135°26'0 0.1
2017-Oct-07 09:25N 34°37' E 135°26'0 0.1
2017-Oct-07 08:55N 34°37' E 135°26'0 0.1
2017-Oct-07 08:19N 34°37' E 135°26'0 0.0
2017-Oct-07 07:37N 34°37' E 135°26'0 0.0
2017-Oct-07 07:25N 34°37' E 135°26'0 0.1
2017-Oct-07 06:55N 34°37' E 135°26'0 0.1
2017-Oct-07 06:25N 34°37' E 135°26'0 0.0
2017-Oct-07 05:59N 34°37' E 135°26'2 4.7
2017-Oct-07 05:30N 34°38' E 135°23'918.8
2017-Oct-07 05:00N 34°31' E 135°15'918.7
2017-Oct-07 04:30N 34°24' E 135°07'1017.7
2017-Oct-07 03:57N 34°17' E 134°59'818.3
2017-Oct-07 03:30N 34°09' E 134°60'1018.8
2017-Oct-07 02:58N 33°59' E 135°00'21717.3
2017-Oct-06 14:25N 34°46' E 139°17'818.2
2017-Oct-06 13:59N 34°52' E 139°24'919.1
2017-Oct-06 13:30N 34°59' E 139°31'1020.0
2017-Oct-06 13:00N 35°05' E 139°40'917.6
2017-Oct-06 12:30N 35°13' E 139°46'612.8
2017-Oct-06 12:01N 35°19' E 139°44'714.6
2017-Oct-06 11:31N 35°26' E 139°45'917.1
2017-Oct-06 11:00N 35°33' E 139°51'5 9.9
2017-Oct-06 10:31N 35°37' E 139°47'0 0.0
2017-Oct-06 00:49N 35°37' E 139°47'2 5.0
2017-Oct-06 00:30N 35°36' E 139°47'815.4
2017-Oct-06 00:00N 35°29' E 139°52'815.5
2017-Oct-05 23:30N 35°23' E 139°46'611.9
2017-Oct-05 23:00N 35°17' E 139°45'612.2
2017-Oct-05 22:30N 35°11' E 139°47'918.4
2017-Oct-05 22:00N 35°03' E 139°42'918.3
2017-Oct-05 21:30N 34°57' E 139°35'23615.7
2017-Oct-05 06:27N 33°50' E 135°00'919.9
2017-Oct-05 05:59N 33°59' E 134°57'1021.0
2017-Oct-05 05:30N 34°09' E 134°58'1121.9
2017-Oct-05 05:00N 34°20' E 134°59'1020.6
2017-Oct-05 04:30N 34°28' E 135°08'1019.9
2017-Oct-05 04:00N 34°34' E 135°17'713.8
2017-Oct-05 03:30N 34°37' E 135°24'1 1.9
2017-Oct-05 02:59N 34°37' E 135°26'0 0.0
2017-Oct-05 02:29N 34°37' E 135°26'0 0.0
2017-Oct-05 01:59N 34°37' E 135°26'0 0.0
2017-Oct-05 01:29N 34°37' E 135°26'0 0.0
2017-Oct-05 00:53N 34°37' E 135°26'0 0.0
2017-Oct-05 00:30N 34°37' E 135°26'3 6.5
2017-Oct-05 00:00N 34°37' E 135°22'919.0
2017-Oct-04 23:30N 34°31' E 135°13'1019.6
2017-Oct-04 23:00N 34°23' E 135°06'1019.5
2017-Oct-04 22:31N 34°15' E 134°59'1019.2
2017-Oct-04 22:00N 34°06' E 134°57'  

Dump ship's entire track history